Time;durP1;ratioP1;P1;durP2;ratioP2;P2;SDS_P1;SDS_P2;PMS_P1;PMS_P2;Temp;Humidity;BMP_temperature;BMP_pressure;BME280_temperature;BME280_humidity;BME280_pressure;Samples;Min_cycle;Max_cycle;Signal;HPM_P1;HPM_P2
2023/02/08 00:01:44;;;;;;;;;;;;;;;;;;4981160;28;19966;-72
2023/02/08 00:04:10;;;;;;;;;;;;;;;;;;4958623;28;20019;-72
2023/02/08 00:06:36;;;;;;;;;;;;;;;;;;4980396;28;20372;-72
2023/02/08 00:09:02;;;;;;;;;;;;;;;;;;4960120;28;20654;-72
2023/02/08 00:11:28;;;;;;;;;;;;;;;;;;4975179;28;20391;-72
2023/02/08 00:13:54;;;;;;;;;;;;;;;;;;4977741;28;19913;-72
2023/02/08 00:16:20;;;;;;;;;;;;;;;;;;4951456;28;19929;-71
2023/02/08 00:18:46;;;;;;;;;;;;;;;;;;4979424;28;19917;-72
2023/02/08 00:21:12;;;;;;;;;;;;;;;;;;4973423;28;19917;-72
2023/02/08 00:23:38;;;;;;;;;;;;;;;;;;4957919;28;19936;-71
2023/02/08 00:26:04;;;;;;;;;;;;;;;;;;4975326;28;20095;-71
2023/02/08 00:28:30;;;;;;;;;;;;;;;;;;4958940;28;19917;-72
2023/02/08 00:30:56;;;;;;;;;;;;;;;;;;4952828;28;20541;-72
2023/02/08 00:33:22;;;;;;;;;;;;;;;;;;4975037;28;20477;-72
2023/02/08 00:35:48;;;;;;;;;;;;;;;;;;4975838;28;20680;-73
2023/02/08 00:38:14;;;;;;;;;;;;;;;;;;4975843;28;20000;-72
2023/02/08 00:40:40;;;;;;;;;;;;;;;;;;4956452;28;19920;-72
2023/02/08 00:43:06;;;;;;;;;;;;;;;;;;4954533;28;19921;-71
2023/02/08 00:45:32;;;;;;;;;;;;;;;;;;4960921;28;19917;-73
2023/02/08 00:47:58;;;;;;;;;;;;;;;;;;4959254;28;19980;-71
2023/02/08 00:50:24;;;;;;;;;;;;;;;;;;4957838;28;20606;-72
2023/02/08 00:52:50;;;;;;;;;;;;;;;;;;4977477;28;20015;-72
2023/02/08 00:55:16;;;;;;;;;;;;;;;;;;4973399;28;20231;-73
2023/02/08 00:57:42;;;;;;;;;;;;;;;;;;4960487;28;20671;-73
2023/02/08 01:00:08;;;;;;;;;;;;;;;;;;4974826;28;20321;-72
2023/02/08 01:02:34;;;;;;;;;;;;;;;;;;4979403;28;19991;-72
2023/02/08 01:05:00;;;;;;;;;;;;;;;;;;4977848;28;19960;-71
2023/02/08 01:07:26;;;;;;;;;;;;;;;;;;4956462;28;20177;-72
2023/02/08 01:09:52;;;;;;;;;;;;;;;;;;4979527;28;19957;-72
2023/02/08 01:12:17;;;;;;;;;;;;;;;;;;4976336;28;19921;-72
2023/02/08 01:14:43;;;;;;;;;;;;;;;;;;4960867;28;20091;-72
2023/02/08 01:17:09;;;;;;;;;;;;;;;;;;4975074;28;20032;-72
2023/02/08 01:19:35;;;;;;;;;;;;;;;;;;4977774;28;19917;-72
2023/02/08 01:22:01;;;;;;;;;;;;;;;;;;4962826;28;20312;-71
2023/02/08 01:24:27;;;;;;;;;;;;;;;;;;4973460;28;20076;-71
2023/02/08 01:26:53;;;;;;;;;;;;;;;;;;4962204;28;19921;-70
2023/02/08 01:29:19;;;;;;;;;;;;;;;;;;4975360;28;19913;-71
2023/02/08 01:31:45;;;;;;;;;;;;;;;;;;4958421;28;19917;-71
2023/02/08 01:34:11;;;;;;;;;;;;;;;;;;4974077;28;20186;-71
2023/02/08 01:36:37;;;;;;;;;;;;;;;;;;4977317;28;20075;-71
2023/02/08 01:39:04;;;;;;;;;;;;;;;;;;4978503;28;20385;-71
2023/02/08 01:41:30;;;;;;;;;;;;;;;;;;4978668;28;19920;-71
2023/02/08 01:43:56;;;;;;;;;;;;;;;;;;4978879;28;19913;-71
2023/02/08 01:46:22;;;;;;;;;;;;;;;;;;4973654;28;19944;-73
2023/02/08 01:48:48;;;;;;;;;;;;;;;;;;4977812;28;19917;-71
2023/02/08 01:51:13;;;;;;;;;;;;;;;;;;4957671;28;20919;-71
2023/02/08 01:53:39;;;;;;;;;;;;;;;;;;4957662;28;19917;-71
2023/02/08 01:56:05;;;;;;;;;;;;;;;;;;4956806;28;19924;-70
2023/02/08 01:58:31;;;;;;;;;;;;;;;;;;4977770;28;20094;-71
2023/02/08 02:00:57;;;;;;;;;;;;;;;;;;4958899;28;19924;-70
2023/02/08 02:03:23;;;;;;;;;;;;;;;;;;4955397;28;20032;-70
2023/02/08 02:05:49;;;;;;;;;;;;;;;;;;4977147;28;19998;-70
2023/02/08 02:08:15;;;;;;;;;;;;;;;;;;4956449;28;19921;-71
2023/02/08 02:10:41;;;;;;;;;;;;;;;;;;4976268;28;20595;-70
2023/02/08 02:13:07;;;;;;;;;;;;;;;;;;4975172;28;19913;-70
2023/02/08 02:15:33;;;;;;;;;;;;;;;;;;4976630;28;19921;-70
2023/02/08 02:17:59;;;;;;;;;;;;;;;;;;4977858;28;19925;-70
2023/02/08 02:20:25;;;;;;;;;;;;;;;;;;4954955;28;20269;-71
2023/02/08 02:22:51;;;;;;;;;;;;;;;;;;4975508;28;19917;-71
2023/02/08 02:25:17;;;;;;;;;;;;;;;;;;4975497;28;20606;-71
2023/02/08 02:27:43;;;;;;;;;;;;;;;;;;4958218;28;19913;-71
2023/02/08 02:30:09;;;;;;;;;;;;;;;;;;4975534;28;19940;-70
2023/02/08 02:32:35;;;;;;;;;;;;;;;;;;4975362;28;20298;-71
2023/02/08 02:35:02;;;;;;;;;;;;;;;;;;4958672;28;19913;-70
2023/02/08 02:37:28;;;;;;;;;;;;;;;;;;4973897;28;19913;-70
2023/02/08 02:39:54;;;;;;;;;;;;;;;;;;4978085;28;20400;-70
2023/02/08 02:45:04;;;;;;;;;;;;;;;;;;4975514;28;20020;-70
2023/02/08 02:47:30;;;;;;;;;;;;;;;;;;4974459;28;20154;-69
2023/02/08 02:49:56;;;;;;;;;;;;;;;;;;4958197;28;19920;-70
2023/02/08 02:52:22;;;;;;;;;;;;;;;;;;4957658;28;19917;-70
2023/02/08 02:54:48;;;;;;;;;;;;;;;;;;4976219;28;20245;-69
2023/02/08 02:57:14;;;;;;;;;;;;;;;;;;4973778;28;19924;-69
2023/02/08 02:59:41;;;;;;;;;;;;;;;;;;4957748;28;20391;-69
2023/02/08 03:02:07;;;;;;;;;;;;;;;;;;4953449;28;20024;-69
2023/02/08 03:04:33;;;;;;;;;;;;;;;;;;4977232;28;20355;-69
2023/02/08 03:06:59;;;;;;;;;;;;;;;;;;4978483;28;19924;-69
2023/02/08 03:09:25;;;;;;;;;;;;;;;;;;4975372;28;19917;-69
2023/02/08 03:11:51;;;;;;;;;;;;;;;;;;4975326;28;19917;-69
2023/02/08 03:14:17;;;;;;;;;;;;;;;;;;4974959;28;19917;-69
2023/02/08 03:16:43;;;;;;;;;;;;;;;;;;4976765;28;19995;-69
2023/02/08 03:19:09;;;;;;;;;;;;;;;;;;4953953;28;20362;-69
2023/02/08 03:21:35;;;;;;;;;;;;;;;;;;4958351;28;20158;-69
2023/02/08 03:24:01;;;;;;;;;;;;;;;;;;4959900;28;19980;-69
2023/02/08 03:26:27;;;;;;;;;;;;;;;;;;4973762;28;20058;-70
2023/02/08 03:28:55;;;;;;;;;;;;;;;;;;4976246;28;19913;-69
2023/02/08 03:31:21;;;;;;;;;;;;;;;;;;4973705;28;19913;-69
2023/02/08 03:33:50;;;;;;;;;;;;;;;;;;4954909;28;19968;-68
2023/02/08 03:36:16;;;;;;;;;;;;;;;;;;4972883;28;19914;-69
2023/02/08 03:38:42;;;;;;;;;;;;;;;;;;4958617;28;20488;-69
2023/02/08 03:41:09;;;;;;;;;;;;;;;;;;4974093;28;20032;-69
2023/02/08 03:43:34;;;;;;;;;;;;;;;;;;4976013;28;19925;-69
2023/02/08 03:46:00;;;;;;;;;;;;;;;;;;4973046;28;20236;-68
2023/02/08 03:48:26;;;;;;;;;;;;;;;;;;4975366;28;19944;-69
2023/02/08 03:50:52;;;;;;;;;;;;;;;;;;4958989;28;20451;-69
2023/02/08 03:53:18;;;;;;;;;;;;;;;;;;4956214;28;19993;-69
2023/02/08 03:55:44;;;;;;;;;;;;;;;;;;4958743;28;20466;-69
2023/02/08 03:58:10;;;;;;;;;;;;;;;;;;4972332;28;19941;-69
2023/02/08 04:00:36;;;;;;;;;;;;;;;;;;4957924;28;19964;-69
2023/02/08 04:03:02;;;;;;;;;;;;;;;;;;4977306;28;20036;-70
2023/02/08 04:05:28;;;;;;;;;;;;;;;;;;4955844;28;20026;-69
2023/02/08 04:07:54;;;;;;;;;;;;;;;;;;4976162;28;19918;-69
2023/02/08 04:10:20;;;;;;;;;;;;;;;;;;4976830;28;19935;-69
2023/02/08 04:12:46;;;;;;;;;;;;;;;;;;4962546;28;19914;-71
2023/02/08 04:15:12;;;;;;;;;;;;;;;;;;4958595;28;19917;-69
2023/02/08 04:17:38;;;;;;;;;;;;;;;;;;4962455;28;19983;-71
2023/02/08 04:20:04;;;;;;;;;;;;;;;;;;4959130;28;19952;-71
2023/02/08 04:22:30;;;;;;;;;;;;;;;;;;4960775;28;19920;-69
2023/02/08 04:24:56;;;;;;;;;;;;;;;;;;4978455;28;19913;-69
2023/02/08 04:27:22;;;;;;;;;;;;;;;;;;4976538;28;19921;-69
2023/02/08 04:29:48;;;;;;;;;;;;;;;;;;4978264;28;20673;-69
2023/02/08 04:32:14;;;;;;;;;;;;;;;;;;4976220;28;19914;-72
2023/02/08 04:34:40;;;;;;;;;;;;;;;;;;4961172;28;19913;-69
2023/02/08 04:37:06;;;;;;;;;;;;;;;;;;4974470;28;20528;-70
2023/02/08 04:39:32;;;;;;;;;;;;;;;;;;4961808;28;19935;-70
2023/02/08 04:41:58;;;;;;;;;;;;;;;;;;4979200;28;20384;-70
2023/02/08 04:44:24;;;;;;;;;;;;;;;;;;4974081;28;22125;-70
2023/02/08 04:46:50;;;;;;;;;;;;;;;;;;4959803;28;20154;-70
2023/02/08 04:49:16;;;;;;;;;;;;;;;;;;4954930;28;20063;-70
2023/02/08 04:51:42;;;;;;;;;;;;;;;;;;4977276;28;19909;-70
2023/02/08 04:54:08;;;;;;;;;;;;;;;;;;4974632;28;20034;-70
2023/02/08 04:56:34;;;;;;;;;;;;;;;;;;4960024;28;20007;-70
2023/02/08 04:59:00;;;;;;;;;;;;;;;;;;4977592;28;20289;-70
2023/02/08 05:01:26;;;;;;;;;;;;;;;;;;4976388;28;19948;-70
2023/02/08 05:03:52;;;;;;;;;;;;;;;;;;4960538;28;19916;-70
2023/02/08 05:06:18;;;;;;;;;;;;;;;;;;4972250;28;19917;-70
2023/02/08 05:08:44;;;;;;;;;;;;;;;;;;4976413;28;20324;-70
2023/02/08 05:11:10;;;;;;;;;;;;;;;;;;4975024;28;20283;-70
2023/02/08 05:13:36;;;;;;;;;;;;;;;;;;4980043;28;19957;-70
2023/02/08 05:16:02;;;;;;;;;;;;;;;;;;4959814;28;20648;-70
2023/02/08 05:18:28;;;;;;;;;;;;;;;;;;4956300;28;19957;-69
2023/02/08 05:20:54;;;;;;;;;;;;;;;;;;4978233;28;19914;-69
2023/02/08 05:23:20;;;;;;;;;;;;;;;;;;4971892;28;20674;-69
2023/02/08 05:25:46;;;;;;;;;;;;;;;;;;4981372;28;19917;-69
2023/02/08 05:28:11;;;;;;;;;;;;;;;;;;4975719;28;20401;-70
2023/02/08 05:30:37;;;;;;;;;;;;;;;;;;4957559;28;20556;-71
2023/02/08 05:33:04;;;;;;;;;;;;;;;;;;4958881;28;20263;-70
2023/02/08 05:35:30;;;;;;;;;;;;;;;;;;4959186;28;19944;-71
2023/02/08 05:37:56;;;;;;;;;;;;;;;;;;4975644;28;19923;-71
2023/02/08 05:40:22;;;;;;;;;;;;;;;;;;4973761;28;20527;-71
2023/02/08 05:42:48;;;;;;;;;;;;;;;;;;4960866;28;19972;-72
2023/02/08 05:45:14;;;;;;;;;;;;;;;;;;4956130;28;20379;-72
2023/02/08 05:47:40;;;;;;;;;;;;;;;;;;4978485;28;19928;-72
2023/02/08 05:50:06;;;;;;;;;;;;;;;;;;4957251;28;20016;-72
2023/02/08 05:52:32;;;;;;;;;;;;;;;;;;4976646;28;20330;-71
2023/02/08 05:54:58;;;;;;;;;;;;;;;;;;4978907;28;20000;-72
2023/02/08 05:57:24;;;;;;;;;;;;;;;;;;4976600;28;19917;-72
2023/02/08 05:59:50;;;;;;;;;;;;;;;;;;4977580;28;20451;-70
2023/02/08 06:02:16;;;;;;;;;;;;;;;;;;4972712;28;20459;-70
2023/02/08 06:04:42;;;;;;;;;;;;;;;;;;4954078;28;19914;-70
2023/02/08 06:07:08;;;;;;;;;;;;;;;;;;4974162;28;19956;-70
2023/02/08 06:09:34;;;;;;;;;;;;;;;;;;4979352;28;19964;-70
2023/02/08 06:12:00;;;;;;;;;;;;;;;;;;4977214;28;20059;-70
2023/02/08 06:14:26;;;;;;;;;;;;;;;;;;4975642;28;19913;-70
2023/02/08 06:16:52;;;;;;;;;;;;;;;;;;4977177;28;20359;-70
2023/02/08 06:19:18;;;;;;;;;;;;;;;;;;4972879;28;19917;-70
2023/02/08 06:21:44;;;;;;;;;;;;;;;;;;4980052;28;20318;-70
2023/02/08 06:24:10;;;;;;;;;;;;;;;;;;4977031;28;20454;-70
2023/02/08 06:26:36;;;;;;;;;;;;;;;;;;4978059;28;19921;-70
2023/02/08 06:29:02;;;;;;;;;;;;;;;;;;4953902;28;19924;-70
2023/02/08 06:31:28;;;;;;;;;;;;;;;;;;4972766;28;20844;-72
2023/02/08 06:33:54;;;;;;;;;;;;;;;;;;4957446;28;19914;-69
2023/02/08 06:36:20;;;;;;;;;;;;;;;;;;4974936;28;19913;-72
2023/02/08 06:38:46;;;;;;;;;;;;;;;;;;4977209;28;20007;-70
2023/02/08 06:41:12;;;;;;;;;;;;;;;;;;4972427;28;19952;-71
2023/02/08 06:43:39;;;;;;;;;;;;;;;;;;4956746;28;19960;-71
2023/02/08 06:46:07;;;;;;;;;;;;;;;;;;4973996;28;19928;-71
2023/02/08 06:48:33;;;;;;;;;;;;;;;;;;4976374;28;19996;-71
2023/02/08 06:50:59;;;;;;;;;;;;;;;;;;4957145;28;19913;-71
2023/02/08 06:53:25;;;;;;;;;;;;;;;;;;4973269;28;20493;-71
2023/02/08 06:55:51;;;;;;;;;;;;;;;;;;4958287;28;20312;-71
2023/02/08 06:58:17;;;;;;;;;;;;;;;;;;4956711;28;20009;-71
2023/02/08 07:00:45;;;;;;;;;;;;;;;;;;4973569;28;20383;-72
2023/02/08 07:03:11;;;;;;;;;;;;;;;;;;4971593;28;20539;-71
2023/02/08 07:05:37;;;;;;;;;;;;;;;;;;4974800;28;19952;-71
2023/02/08 07:08:03;;;;;;;;;;;;;;;;;;4957852;28;19913;-71
2023/02/08 07:10:30;;;;;;;;;;;;;;;;;;4956103;28;19920;-71
2023/02/08 07:12:56;;;;;;;;;;;;;;;;;;4975542;28;19952;-71
2023/02/08 07:15:21;;;;;;;;;;;;;;;;;;4954899;28;19955;-71
2023/02/08 07:17:47;;;;;;;;;;;;;;;;;;4977134;28;19922;-72
2023/02/08 07:20:13;;;;;;;;;;;;;;;;;;4972619;28;20370;-71
2023/02/08 07:22:39;;;;;;;;;;;;;;;;;;4957096;28;19917;-72
2023/02/08 07:25:06;;;;;;;;;;;;;;;;;;4953406;28;20406;-72
2023/02/08 07:27:32;;;;;;;;;;;;;;;;;;4953968;28;19956;-71
2023/02/08 07:29:58;;;;;;;;;;;;;;;;;;4973032;28;19913;-72
2023/02/08 07:32:24;;;;;;;;;;;;;;;;;;4972211;28;20291;-73
2023/02/08 07:34:50;;;;;;;;;;;;;;;;;;4956343;28;19993;-72
2023/02/08 07:37:16;;;;;;;;;;;;;;;;;;4956435;28;20344;-72
2023/02/08 07:39:42;;;;;;;;;;;;;;;;;;4972970;28;19925;-71
2023/02/08 07:42:08;;;;;;;;;;;;;;;;;;4954051;28;19913;-71
2023/02/08 07:44:34;;;;;;;;;;;;;;;;;;4979229;28;19928;-72
2023/02/08 07:47:00;;;;;;;;;;;;;;;;;;4952446;28;20383;-72
2023/02/08 07:49:26;;;;;;;;;;;;;;;;;;4951064;28;20695;-71
2023/02/08 07:51:52;;;;;;;;;;;;;;;;;;4951236;28;19914;-71
2023/02/08 07:54:18;;;;;;;;;;;;;;;;;;4977562;28;20548;-72
2023/02/08 07:56:44;;;;;;;;;;;;;;;;;;4958711;28;19921;-72
2023/02/08 07:59:10;;;;;;;;;;;;;;;;;;4957316;28;19913;-72
2023/02/08 08:01:36;;;;;;;;;;;;;;;;;;4979644;28;19917;-72
2023/02/08 08:04:02;;;;;;;;;;;;;;;;;;4977687;28;19920;-72
2023/02/08 08:06:28;;;;;;;;;;;;;;;;;;4975833;28;19917;-72
2023/02/08 08:08:54;;;;;;;;;;;;;;;;;;4959604;28;19948;-72
2023/02/08 08:11:20;;;;;;;;;;;;;;;;;;4972139;28;20334;-72
2023/02/08 08:13:46;;;;;;;;;;;;;;;;;;4961846;28;19914;-72
2023/02/08 08:16:12;;;;;;;;;;;;;;;;;;4975161;28;20230;-72
2023/02/08 08:18:38;;;;;;;;;;;;;;;;;;4961169;28;19926;-72
2023/02/08 08:21:04;;;;;;;;;;;;;;;;;;4976721;28;20366;-72
2023/02/08 08:23:31;;;;;;;;;;;;;;;;;;4961174;28;19913;-72
2023/02/08 08:25:57;;;;;;;;;;;;;;;;;;4959407;28;19928;-72
2023/02/08 08:28:23;;;;;;;;;;;;;;;;;;4960307;28;19918;-73
2023/02/08 08:30:50;;;;;;;;;;;;;;;;;;4978283;28;19909;-72
2023/02/08 08:33:16;;;;;;;;;;;;;;;;;;4977396;28;20413;-72
2023/02/08 08:35:43;;;;;;;;;;;;;;;;;;4979287;28;19913;-72
2023/02/08 08:38:09;;;;;;;;;;;;;;;;;;4956010;28;19918;-72
2023/02/08 08:40:35;;;;;;;;;;;;;;;;;;4962738;28;19920;-73
2023/02/08 08:43:01;;;;;;;;;;;;;;;;;;4979466;28;20127;-73
2023/02/08 08:45:27;;;;;;;;;;;;;;;;;;4975565;28;20239;-72
2023/02/08 08:47:53;;;;;;;;;;;;;;;;;;4960113;28;20287;-72
2023/02/08 08:50:19;;;;;;;;;;;;;;;;;;4972635;28;19939;-72
2023/02/08 08:52:45;;;;;;;;;;;;;;;;;;4959751;28;20625;-72
2023/02/08 08:55:10;;;;;;;;;;;;;;;;;;4956347;28;19914;-72
2023/02/08 08:57:37;;;;;;;;;;;;;;;;;;4978325;28;20522;-71
2023/02/08 09:00:03;;;;;;;;;;;;;;;;;;4978306;28;19924;-71
2023/02/08 09:02:29;;;;;;;;;;;;;;;;;;4957127;28;19913;-71
2023/02/08 09:04:58;;;;;;;;;;;;;;;;;;4979636;28;20572;-71
2023/02/08 09:07:24;;;;;;;;;;;;;;;;;;4956557;28;21589;-72
2023/02/08 09:09:50;;;;;;;;;;;;;;;;;;4959528;28;19925;-72
2023/02/08 09:12:16;;;;;;;;;;;;;;;;;;4973953;28;20370;-72
2023/02/08 09:14:43;;;;;;;;;;;;;;;;;;4959201;28;20316;-72
2023/02/08 09:17:09;;;;;;;;;;;;;;;;;;4959568;28;20027;-71
2023/02/08 09:19:35;;;;;;;;;;;;;;;;;;4961284;28;19962;-71
2023/02/08 09:22:01;;;;;;;;;;;;;;;;;;4958123;28;19918;-71
2023/02/08 09:24:27;;;;;;;;;;;;;;;;;;4977617;28;20043;-72
2023/02/08 09:26:53;;;;;;;;;;;;;;;;;;4978950;28;19921;-71
2023/02/08 09:29:19;;;;;;;;;;;;;;;;;;4974037;28;19917;-71
2023/02/08 09:31:45;;;;;;;;;;;;;;;;;;4962478;28;20328;-70
2023/02/08 09:34:11;;;;;;;;;;;;;;;;;;4964851;28;19920;-70
2023/02/08 09:36:37;;;;;;;;;;;;;;;;;;4964332;28;19910;-71
2023/02/08 09:39:03;;;;;;;;;;;;;;;;;;4979767;28;20775;-71
2023/02/08 09:41:29;;;;;;;;;;;;;;;;;;4982688;28;19971;-71
2023/02/08 09:43:55;;;;;;;;;;;;;;;;;;4967451;28;20324;-71
2023/02/08 09:46:21;;;;;;;;;;;;;;;;;;4963521;28;20324;-71
2023/02/08 09:48:47;;;;;;;;;;;;;;;;;;4980647;28;20882;-71
2023/02/08 09:51:14;;;;;;;;;;;;;;;;;;4976550;28;20338;-71
2023/02/08 09:53:40;;;;;;;;;;;;;;;;;;4965523;28;19913;-72
2023/02/08 09:56:06;;;;;;;;;;;;;;;;;;4977168;28;20420;-71
2023/02/08 09:58:31;;;;;;;;;;;;;;;;;;4980037;28;20286;-72
2023/02/08 10:00:57;;;;;;;;;;;;;;;;;;4964100;28;20798;-72
2023/02/08 10:03:23;;;;;;;;;;;;;;;;;;4963181;28;20241;-71
2023/02/08 10:05:49;;;;;;;;;;;;;;;;;;4978546;28;20000;-71
2023/02/08 10:08:16;;;;;;;;;;;;;;;;;;4960901;28;19960;-72
2023/02/08 10:10:42;;;;;;;;;;;;;;;;;;4937593;28;19913;-71
2023/02/08 10:13:08;;;;;;;;;;;;;;;;;;4954855;28;21242;-71
2023/02/08 10:15:34;;;;;;;;;;;;;;;;;;4938823;28;19917;-71
2023/02/08 10:18:00;;;;;;;;;;;;;;;;;;4937438;28;20384;-71
2023/02/08 10:20:26;;;;;;;;;;;;;;;;;;4954549;28;19913;-72
2023/02/08 10:22:52;;;;;;;;;;;;;;;;;;4956543;28;20045;-71
2023/02/08 10:25:18;;;;;;;;;;;;;;;;;;4952837;28;21370;-71
2023/02/08 10:27:44;;;;;;;;;;;;;;;;;;4937246;28;20373;-70
2023/02/08 10:30:10;;;;;;;;;;;;;;;;;;4951120;28;21024;-73
2023/02/08 10:32:36;;;;;;;;;;;;;;;;;;4955232;28;19960;-71
2023/02/08 10:35:02;;;;;;;;;;;;;;;;;;4955121;28;19913;-73
2023/02/08 10:37:28;;;;;;;;;;;;;;;;;;4936822;28;19913;-72
2023/02/08 10:39:54;;;;;;;;;;;;;;;;;;4939113;28;20434;-74
2023/02/08 10:42:21;;;;;;;;;;;;;;;;;;4952214;28;19914;-72
2023/02/08 10:44:47;;;;;;;;;;;;;;;;;;4943856;28;19913;-72
2023/02/08 10:47:13;;;;;;;;;;;;;;;;;;4977698;28;20394;-72
2023/02/08 10:49:39;;;;;;;;;;;;;;;;;;4963325;28;19917;-72
2023/02/08 10:52:05;;;;;;;;;;;;;;;;;;4978702;28;20383;-71
2023/02/08 10:54:31;;;;;;;;;;;;;;;;;;4979528;28;19964;-71
2023/02/08 10:56:59;;;;;;;;;;;;;;;;;;4981497;28;20003;-72
2023/02/08 10:59:25;;;;;;;;;;;;;;;;;;4977058;28;20882;-72
2023/02/08 11:01:51;;;;;;;;;;;;;;;;;;4981100;28;20442;-72
2023/02/08 11:04:17;;;;;;;;;;;;;;;;;;4982262;28;19914;-72
2023/02/08 11:06:43;;;;;;;;;;;;;;;;;;4961956;28;20189;-72
2023/02/08 11:09:09;;;;;;;;;;;;;;;;;;4959201;28;19921;-72
2023/02/08 11:11:35;;;;;;;;;;;;;;;;;;4963635;28;19913;-72
2023/02/08 11:14:01;;;;;;;;;;;;;;;;;;4967210;28;20717;-71
2023/02/08 11:16:27;;;;;;;;;;;;;;;;;;4961787;28;19956;-71
2023/02/08 11:18:55;;;;;;;;;;;;;;;;;;4968299;28;19990;-71
2023/02/08 11:21:21;;;;;;;;;;;;;;;;;;4962075;28;20015;-71
2023/02/08 11:23:48;;;;;;;;;;;;;;;;;;4967614;28;20150;-72
2023/02/08 11:26:14;;;;;;;;;;;;;;;;;;4964322;28;20036;-71
2023/02/08 11:28:40;;;;;;;;;;;;;;;;;;4982969;28;20009;-73
2023/02/08 11:31:06;;;;;;;;;;;;;;;;;;4963474;28;19917;-71
2023/02/08 11:33:32;;;;;;;;;;;;;;;;;;4967793;28;19916;-72
2023/02/08 11:35:58;;;;;;;;;;;;;;;;;;4966437;28;20352;-71
2023/02/08 11:38:27;;;;;;;;;;;;;;;;;;4964379;28;21752;-72
2023/02/08 11:40:53;;;;;;;;;;;;;;;;;;4967742;28;19984;-71
2023/02/08 11:43:19;;;;;;;;;;;;;;;;;;4981276;28;19920;-72
2023/02/08 11:45:45;;;;;;;;;;;;;;;;;;4966080;28;19949;-71
2023/02/08 11:48:11;;;;;;;;;;;;;;;;;;4963666;28;19929;-72
2023/02/08 11:50:37;;;;;;;;;;;;;;;;;;4989209;28;19927;-72
2023/02/08 11:53:04;;;;;;;;;;;;;;;;;;4983922;28;19913;-71
2023/02/08 11:55:30;;;;;;;;;;;;;;;;;;4965853;28;20301;-71
2023/02/08 11:57:56;;;;;;;;;;;;;;;;;;4967315;28;20321;-74
2023/02/08 12:00:22;;;;;;;;;;;;;;;;;;4979646;28;19917;-71
2023/02/08 12:02:48;;;;;;;;;;;;;;;;;;4982617;28;20152;-72
2023/02/08 12:05:14;;;;;;;;;;;;;;;;;;4981204;28;19913;-71
2023/02/08 12:07:40;;;;;;;;;;;;;;;;;;4962861;28;19917;-72
2023/02/08 12:10:06;;;;;;;;;;;;;;;;;;4964202;28;19944;-71
2023/02/08 12:12:32;;;;;;;;;;;;;;;;;;4982500;28;19917;-71
2023/02/08 12:14:58;;;;;;;;;;;;;;;;;;4980483;28;20119;-72
2023/02/08 12:17:24;;;;;;;;;;;;;;;;;;4964090;28;20652;-72
2023/02/08 12:19:52;;;;;;;;;;;;;;;;;;4981894;28;19929;-72
2023/02/08 12:22:18;;;;;;;;;;;;;;;;;;4983793;28;20329;-72
2023/02/08 12:24:44;;;;;;;;;;;;;;;;;;4985008;28;20370;-72
2023/02/08 12:27:09;;;;;;;;;;;;;;;;;;4977680;28;20004;-72
2023/02/08 12:29:35;;;;;;;;;;;;;;;;;;4965241;28;19920;-74
2023/02/08 12:32:01;;;;;;;;;;;;;;;;;;4986331;28;19976;-74
2023/02/08 12:34:27;;;;;;;;;;;;;;;;;;4982254;28;19914;-73
2023/02/08 12:40:48;;;;;;;;;;;;;;;;;;4987105;28;19913;-74
2023/02/08 12:42:24;;;;;;;;;;;;;;;;;;4982473;28;19959;-72
2023/02/08 12:44:50;;;;;;;;;;;;;;;;;;4965473;28;19917;-72
2023/02/08 12:47:16;;;;;;;;;;;;;;;;;;4963556;28;19921;-72
2023/02/08 12:49:42;;;;;;;;;;;;;;;;;;4968146;28;19922;-74
2023/02/08 12:52:08;;;;;;;;;;;;;;;;;;4982838;28;19913;-74
2023/02/08 12:54:34;;;;;;;;;;;;;;;;;;4984156;28;19936;-73
2023/02/08 12:57:00;;;;;;;;;;;;;;;;;;4985831;28;19920;-72
2023/02/08 12:59:26;;;;;;;;;;;;;;;;;;4979073;28;19948;-73
2023/02/08 13:01:55;;;;;;;;;;;;;;;;;;4984203;28;20011;-73
2023/02/08 13:04:21;;;;;;;;;;;;;;;;;;4961553;28;20242;-73
2023/02/08 13:06:48;;;;;;;;;;;;;;;;;;4966721;28;20384;-73
2023/02/08 13:09:14;;;;;;;;;;;;;;;;;;4980363;28;20386;-73
2023/02/08 13:11:40;;;;;;;;;;;;;;;;;;4983780;28;20420;-73
2023/02/08 13:14:06;;;;;;;;;;;;;;;;;;4963072;28;19913;-73
2023/02/08 13:16:33;;;;;;;;;;;;;;;;;;4968392;28;19921;-73
2023/02/08 13:18:59;;;;;;;;;;;;;;;;;;4978854;28;20016;-73
2023/02/08 13:21:25;;;;;;;;;;;;;;;;;;4980160;28;19923;-73
2023/02/08 13:23:51;;;;;;;;;;;;;;;;;;4978463;28;20163;-73
2023/02/08 13:26:17;;;;;;;;;;;;;;;;;;4976822;28;20382;-73
2023/02/08 13:28:43;;;;;;;;;;;;;;;;;;4980714;28;19919;-74
2023/02/08 13:31:09;;;;;;;;;;;;;;;;;;4960782;28;20140;-73
2023/02/08 13:33:35;;;;;;;;;;;;;;;;;;4976926;28;19917;-74
2023/02/08 13:36:01;;;;;;;;;;;;;;;;;;4979464;28;19917;-73
2023/02/08 13:38:27;;;;;;;;;;;;;;;;;;4959596;28;19972;-74
2023/02/08 13:40:53;;;;;;;;;;;;;;;;;;4963466;28;20480;-74
2023/02/08 13:43:19;;;;;;;;;;;;;;;;;;4958563;28;19913;-74
2023/02/08 13:45:45;;;;;;;;;;;;;;;;;;4975358;28;19913;-75
2023/02/08 13:48:11;;;;;;;;;;;;;;;;;;4957554;28;19969;-73
2023/02/08 13:50:37;;;;;;;;;;;;;;;;;;4975522;28;19913;-75
2023/02/08 13:53:04;;;;;;;;;;;;;;;;;;4959381;28;19913;-73
2023/02/08 13:57:56;;;;;;;;;;;;;;;;;;4973383;28;20257;-75
2023/02/08 14:00:22;;;;;;;;;;;;;;;;;;4960368;28;19913;-74
2023/02/08 14:02:48;;;;;;;;;;;;;;;;;;4973843;28;19913;-74
2023/02/08 14:05:14;;;;;;;;;;;;;;;;;;4974611;28;20354;-74
2023/02/08 14:07:40;;;;;;;;;;;;;;;;;;4981278;28;19979;-74
2023/02/08 14:10:06;;;;;;;;;;;;;;;;;;4976651;28;20967;-75
2023/02/08 14:12:32;;;;;;;;;;;;;;;;;;4958890;28;20032;-74
2023/02/08 14:14:58;;;;;;;;;;;;;;;;;;4963090;28;19914;-74
2023/02/08 14:17:24;;;;;;;;;;;;;;;;;;4979578;28;20024;-75
2023/02/08 14:19:50;;;;;;;;;;;;;;;;;;4983397;28;20213;-75
2023/02/08 14:22:16;;;;;;;;;;;;;;;;;;4982497;28;20397;-74
2023/02/08 14:24:45;;;;;;;;;;;;;;;;;;4983254;28;19929;-74
2023/02/08 14:27:11;;;;;;;;;;;;;;;;;;4978496;28;19917;-75
2023/02/08 14:29:37;;;;;;;;;;;;;;;;;;4980413;28;20271;-75
2023/02/08 14:32:03;;;;;;;;;;;;;;;;;;4980097;28;19921;-74
2023/02/08 14:34:32;;;;;;;;;;;;;;;;;;4975614;28;19913;-74
2023/02/08 14:36:58;;;;;;;;;;;;;;;;;;4982327;28;19925;-75
2023/02/08 14:39:25;;;;;;;;;;;;;;;;;;4979112;28;20571;-75
2023/02/08 14:41:53;;;;;;;;;;;;;;;;;;4964793;28;20320;-75
2023/02/08 14:44:19;;;;;;;;;;;;;;;;;;4981265;28;20510;-74
2023/02/08 14:46:45;;;;;;;;;;;;;;;;;;4963598;28;19970;-73
2023/02/08 14:49:11;;;;;;;;;;;;;;;;;;4960440;28;19917;-74
2023/02/08 14:51:37;;;;;;;;;;;;;;;;;;4980188;28;20279;-72
2023/02/08 14:54:03;;;;;;;;;;;;;;;;;;4965254;28;19917;-73
2023/02/08 14:56:29;;;;;;;;;;;;;;;;;;4980119;28;20399;-73
2023/02/08 14:58:55;;;;;;;;;;;;;;;;;;4963901;28;19913;-73
2023/02/08 15:01:21;;;;;;;;;;;;;;;;;;4977805;28;19983;-73
2023/02/08 15:03:47;;;;;;;;;;;;;;;;;;4982498;28;19913;-73
2023/02/08 15:06:13;;;;;;;;;;;;;;;;;;4979932;28;20363;-73
2023/02/08 15:08:39;;;;;;;;;;;;;;;;;;4982729;28;19920;-73
2023/02/08 15:11:05;;;;;;;;;;;;;;;;;;4961797;28;20263;-72
2023/02/08 15:13:31;;;;;;;;;;;;;;;;;;4962418;28;20125;-73
2023/02/08 15:15:58;;;;;;;;;;;;;;;;;;4980826;28;20349;-75
2023/02/08 15:18:24;;;;;;;;;;;;;;;;;;4958853;28;21125;-73
2023/02/08 15:20:50;;;;;;;;;;;;;;;;;;4982388;28;19913;-74
2023/02/08 15:23:16;;;;;;;;;;;;;;;;;;4974288;28;19921;-74
2023/02/08 15:25:42;;;;;;;;;;;;;;;;;;4983089;28;20353;-74
2023/02/08 15:28:08;;;;;;;;;;;;;;;;;;4979803;28;20335;-74
2023/02/08 15:30:34;;;;;;;;;;;;;;;;;;4978287;28;20594;-74
2023/02/08 15:33:00;;;;;;;;;;;;;;;;;;4980582;28;20074;-74
2023/02/08 15:35:26;;;;;;;;;;;;;;;;;;4980733;28;19971;-74
2023/02/08 15:37:52;;;;;;;;;;;;;;;;;;4962849;28;19921;-74
2023/02/08 15:40:18;;;;;;;;;;;;;;;;;;4977581;28;20327;-74
2023/02/08 15:42:44;;;;;;;;;;;;;;;;;;4966439;28;19936;-74
2023/02/08 15:45:10;;;;;;;;;;;;;;;;;;4980028;28;19913;-74
2023/02/08 15:47:38;;;;;;;;;;;;;;;;;;4963510;28;20295;-74
2023/02/08 15:50:04;;;;;;;;;;;;;;;;;;4964846;28;19914;-72
2023/02/08 15:52:30;;;;;;;;;;;;;;;;;;4980797;28;19913;-72
2023/02/08 15:54:56;;;;;;;;;;;;;;;;;;4982399;28;20671;-72
2023/02/08 15:57:22;;;;;;;;;;;;;;;;;;4975791;28;20418;-73
2023/02/08 15:59:48;;;;;;;;;;;;;;;;;;4958771;28;19913;-74
2023/02/08 16:02:14;;;;;;;;;;;;;;;;;;4959358;28;19917;-72
2023/02/08 16:04:40;;;;;;;;;;;;;;;;;;4983666;28;20224;-73
2023/02/08 16:07:06;;;;;;;;;;;;;;;;;;4979436;28;20434;-74
2023/02/08 16:09:32;;;;;;;;;;;;;;;;;;4981367;28;19920;-72
2023/02/08 16:11:58;;;;;;;;;;;;;;;;;;4984772;28;19921;-73
2023/02/08 16:14:24;;;;;;;;;;;;;;;;;;4980441;28;19998;-73
2023/02/08 16:16:50;;;;;;;;;;;;;;;;;;4984046;28;19925;-73
2023/02/08 16:19:16;;;;;;;;;;;;;;;;;;4985902;28;19937;-73
2023/02/08 16:21:42;;;;;;;;;;;;;;;;;;4983760;28;20000;-74
2023/02/08 16:24:08;;;;;;;;;;;;;;;;;;4980583;28;19920;-74
2023/02/08 16:26:34;;;;;;;;;;;;;;;;;;4985141;28;19924;-74
2023/02/08 16:29:00;;;;;;;;;;;;;;;;;;4964151;28;20246;-74
2023/02/08 16:31:28;;;;;;;;;;;;;;;;;;4983020;28;19917;-74
2023/02/08 16:33:55;;;;;;;;;;;;;;;;;;4983899;28;20244;-74
2023/02/08 16:36:21;;;;;;;;;;;;;;;;;;4965526;28;19945;-73
2023/02/08 16:38:47;;;;;;;;;;;;;;;;;;4982676;28;19919;-73
2023/02/08 16:41:13;;;;;;;;;;;;;;;;;;4982051;28;19914;-74
2023/02/08 16:43:42;;;;;;;;;;;;;;;;;;4965861;28;20503;-74
2023/02/08 16:46:08;;;;;;;;;;;;;;;;;;4977553;28;20172;-73